Time;durP1;ratioP1;P1;durP2;ratioP2;P2;SDS_P1;SDS_P2;PMS_P1;PMS_P2;Temp;Humidity;BMP_temperature;BMP_pressure;BME280_temperature;BME280_humidity;BME280_pressure;Samples;Min_cycle;Max_cycle;Signal;HPM_P1;HPM_P2
2022/02/13 00:00:26;;;;;;;;;;;-4.50;99.90;;;;;;5070932;28;20376;-72
2022/02/13 00:02:52;;;;;;;;;;;-4.60;99.90;;;;;;5070863;28;19919;-72
2022/02/13 00:05:17;;;;;;;;;;;-4.40;99.90;;;;;;5070718;28;19974;-72
2022/02/13 00:07:43;;;;;;;;;;;-4.40;99.90;;;;;;5070948;28;19992;-72
2022/02/13 00:10:10;;;;;;;;;;;-4.20;99.90;;;;;;5070497;28;19919;-72
2022/02/13 00:12:36;;;;;;;;;;;-4.30;99.90;;;;;;5072639;28;19919;-72
2022/02/13 00:15:02;;;;;;;;;;;-4.60;99.90;;;;;;5074577;28;19912;-72
2022/02/13 00:17:28;;;;;;;;;;;-4.70;99.90;;;;;;5070351;28;19924;-72
2022/02/13 00:19:53;;;;;;;;;;;-4.70;99.90;;;;;;5074668;28;19908;-72
2022/02/13 00:22:19;;;;;;;;;;;-4.80;99.90;;;;;;5072040;28;19908;-73
2022/02/13 00:24:45;;;;;;;;;;;-4.70;99.90;;;;;;5074363;28;19913;-73
2022/02/13 00:27:11;;;;;;;;;;;-4.50;99.90;;;;;;5073475;28;20280;-72
2022/02/13 00:29:37;;;;;;;;;;;-4.50;99.90;;;;;;5073959;28;20333;-72
2022/02/13 00:32:03;;;;;;;;;;;-4.80;99.90;;;;;;5074274;28;19909;-72
2022/02/13 00:34:28;;;;;;;;;;;-4.80;99.90;;;;;;5074277;28;20015;-72
2022/02/13 00:36:54;;;;;;;;;;;-4.80;99.90;;;;;;5074454;28;19952;-71
2022/02/13 00:39:20;;;;;;;;;;;-4.70;99.90;;;;;;5074541;28;19908;-72
2022/02/13 00:41:45;;;;;;;;;;;-4.70;99.90;;;;;;5074359;28;19909;-72
2022/02/13 00:44:11;;;;;;;;;;;-4.70;99.90;;;;;;5074023;28;19978;-72
2022/02/13 00:46:37;;;;;;;;;;;-4.80;99.90;;;;;;5069320;28;19909;-72
2022/02/13 00:49:02;;;;;;;;;;;-4.80;99.90;;;;;;5073888;28;19947;-71
2022/02/13 00:51:28;;;;;;;;;;;-4.80;99.90;;;;;;5074200;28;19908;-72
2022/02/13 00:53:53;;;;;;;;;;;-4.80;99.90;;;;;;5073921;28;19909;-72
2022/02/13 00:56:20;;;;;;;;;;;-4.80;99.90;;;;;;5073786;28;20431;-72
2022/02/13 00:58:46;;;;;;;;;;;-4.90;99.90;;;;;;5074226;28;19948;-72
2022/02/13 01:01:13;;;;;;;;;;;-4.90;99.90;;;;;;5074435;28;20388;-72
2022/02/13 01:03:38;;;;;;;;;;;-4.80;99.90;;;;;;5074201;28;19936;-72
2022/02/13 01:06:04;;;;;;;;;;;-4.80;99.90;;;;;;5073958;28;19963;-72
2022/02/13 01:08:30;;;;;;;;;;;-4.90;99.90;;;;;;5073992;28;20277;-72
2022/02/13 01:10:55;;;;;;;;;;;-4.90;99.90;;;;;;5073875;28;19908;-72
2022/02/13 01:13:21;;;;;;;;;;;-5.10;99.90;;;;;;5073504;28;19914;-72
2022/02/13 01:15:47;;;;;;;;;;;-5.00;99.90;;;;;;5073708;28;19917;-72
2022/02/13 01:18:12;;;;;;;;;;;-4.80;99.90;;;;;;5067364;28;20226;-72
2022/02/13 01:20:38;;;;;;;;;;;-4.90;99.90;;;;;;5073721;28;19962;-72
2022/02/13 01:23:04;;;;;;;;;;;-4.90;99.90;;;;;;5073464;28;19915;-72
2022/02/13 01:25:29;;;;;;;;;;;-5.00;99.90;;;;;;5072248;28;19912;-71
2022/02/13 01:27:55;;;;;;;;;;;-5.10;99.90;;;;;;5073470;28;19913;-72
2022/02/13 01:30:20;;;;;;;;;;;-5.10;99.90;;;;;;5072221;28;19919;-72
2022/02/13 01:32:46;;;;;;;;;;;-5.00;99.90;;;;;;5073216;28;20282;-72
2022/02/13 01:35:11;;;;;;;;;;;-4.90;99.90;;;;;;5073179;28;19919;-72
2022/02/13 01:37:37;;;;;;;;;;;-4.90;99.90;;;;;;5073336;28;19916;-72
2022/02/13 01:40:03;;;;;;;;;;;-4.80;99.90;;;;;;5073533;28;19908;-72
2022/02/13 01:42:28;;;;;;;;;;;-4.60;99.90;;;;;;5073265;28;20384;-71
2022/02/13 01:44:55;;;;;;;;;;;-4.60;99.90;;;;;;5073087;28;19912;-71
2022/02/13 01:47:22;;;;;;;;;;;-4.70;99.90;;;;;;5068228;28;19923;-71
2022/02/13 01:49:47;;;;;;;;;;;-4.90;99.90;;;;;;5076724;28;19962;-71
2022/02/13 01:52:13;;;;;;;;;;;-4.90;99.90;;;;;;5072978;28;20009;-71
2022/02/13 01:54:38;;;;;;;;;;;-5.00;99.90;;;;;;5072825;28;19915;-71
2022/02/13 01:57:04;;;;;;;;;;;-4.90;99.90;;;;;;5072849;28;19908;-71
2022/02/13 01:59:30;;;;;;;;;;;-4.90;99.90;;;;;;5072934;28;20312;-71
2022/02/13 02:01:55;;;;;;;;;;;-4.90;99.90;;;;;;5066263;28;20446;-71
2022/02/13 02:04:21;;;;;;;;;;;-4.70;99.90;;;;;;5072488;28;20464;-71
2022/02/13 02:06:46;;;;;;;;;;;-4.70;99.90;;;;;;5072748;28;19909;-71
2022/02/13 02:09:12;;;;;;;;;;;-3.70;99.90;;;;;;5072679;28;19912;-72
2022/02/13 02:11:37;;;;;;;;;;;-3.50;99.90;;;;;;5072485;28;19970;-72
2022/02/13 02:14:03;;;;;;;;;;;-2.90;99.90;;;;;;5072354;28;19915;-71
2022/02/13 02:16:28;;;;;;;;;;;-2.40;99.90;;;;;;5072036;28;20333;-71
2022/02/13 02:18:54;;;;;;;;;;;-1.80;99.90;;;;;;5072871;28;19953;-72
2022/02/13 02:21:19;;;;;;;;;;;-1.60;99.90;;;;;;5072375;28;20296;-72
2022/02/13 02:23:45;;;;;;;;;;;-1.60;99.90;;;;;;5072245;28;20003;-72
2022/02/13 02:26:17;;;;;;;;;;;-1.30;99.90;;;;;;5072268;28;19912;-71
2022/02/13 02:28:42;;;;;;;;;;;-1.00;99.90;;;;;;5072442;28;19916;-72
2022/02/13 02:31:08;;;;;;;;;;;-0.80;99.90;;;;;;5072068;28;20388;-72
2022/02/13 02:33:33;;;;;;;;;;;-0.70;99.90;;;;;;5071161;28;19912;-72
2022/02/13 02:35:59;;;;;;;;;;;-0.90;99.90;;;;;;5072013;28;19951;-72
2022/02/13 02:38:24;;;;;;;;;;;-1.00;99.90;;;;;;5072070;28;19913;-72
2022/02/13 02:40:50;;;;;;;;;;;-0.90;99.90;;;;;;5072161;28;19935;-72
2022/02/13 02:43:15;;;;;;;;;;;-0.20;99.90;;;;;;5071638;28;20274;-72
2022/02/13 02:45:41;;;;;;;;;;;-0.10;99.90;;;;;;5071877;28;20369;-72
2022/02/13 02:48:06;;;;;;;;;;;-0.20;99.90;;;;;;5069230;28;20007;-72
2022/02/13 02:50:32;;;;;;;;;;;-0.50;99.90;;;;;;5071942;28;20391;-71
2022/02/13 02:52:57;;;;;;;;;;;-0.50;99.90;;;;;;5071705;28;19995;-72
2022/02/13 02:55:23;;;;;;;;;;;-0.20;99.90;;;;;;5071622;28;19908;-72
2022/02/13 02:57:48;;;;;;;;;;;-0.30;99.90;;;;;;5072214;28;19909;-72
2022/02/13 03:00:14;;;;;;;;;;;-0.40;99.90;;;;;;5071399;28;19916;-72
2022/02/13 03:02:39;;;;;;;;;;;-0.30;99.90;;;;;;5071581;28;19908;-72
2022/02/13 03:05:05;;;;;;;;;;;-0.10;99.90;;;;;;5071443;28;19916;-72
2022/02/13 03:07:31;;;;;;;;;;;0.00;99.90;;;;;;5071595;28;19916;-72
2022/02/13 03:09:56;;;;;;;;;;;-0.10;99.90;;;;;;5071675;28;19909;-72
2022/02/13 03:12:22;;;;;;;;;;;0.00;99.90;;;;;;5071405;28;19912;-72
2022/02/13 03:14:47;;;;;;;;;;;0.00;99.90;;;;;;5064660;28;19908;-72
2022/02/13 03:17:13;;;;;;;;;;;0.00;99.90;;;;;;5066300;28;19916;-72
2022/02/13 03:19:39;;;;;;;;;;;-0.10;99.90;;;;;;5076556;28;19963;-72
2022/02/13 03:22:04;;;;;;;;;;;0.00;99.90;;;;;;5071265;28;19908;-72
2022/02/13 03:24:31;;;;;;;;;;;-0.10;99.90;;;;;;5070975;28;20007;-71
2022/02/13 03:26:56;;;;;;;;;;;-0.20;99.90;;;;;;5071338;28;19962;-72
2022/02/13 03:29:22;;;;;;;;;;;0.00;99.90;;;;;;5071086;28;19912;-72
2022/02/13 03:31:48;;;;;;;;;;;-0.10;99.90;;;;;;5071147;28;19909;-72
2022/02/13 03:34:14;;;;;;;;;;;-0.20;99.90;;;;;;5070976;28;19916;-72
2022/02/13 03:36:39;;;;;;;;;;;-0.20;99.90;;;;;;5071171;28;19909;-72
2022/02/13 03:39:05;;;;;;;;;;;-0.30;99.90;;;;;;5069866;28;20257;-72
2022/02/13 03:41:31;;;;;;;;;;;-0.40;99.90;;;;;;5071468;28;19915;-72
2022/02/13 03:43:56;;;;;;;;;;;-0.50;99.90;;;;;;5070614;28;19908;-71
2022/02/13 03:46:22;;;;;;;;;;;-0.60;99.90;;;;;;5069646;28;20352;-72
2022/02/13 03:48:47;;;;;;;;;;;-0.40;99.90;;;;;;5073706;28;20428;-72
2022/02/13 03:51:13;;;;;;;;;;;-0.50;99.90;;;;;;5074295;28;19908;-72
2022/02/13 03:53:39;;;;;;;;;;;-0.50;99.90;;;;;;5070973;28;19908;-71
2022/02/13 03:56:04;;;;;;;;;;;-0.70;99.90;;;;;;5071120;28;19935;-72
2022/02/13 03:58:30;;;;;;;;;;;-0.60;99.90;;;;;;5070741;28;19916;-72
2022/02/13 04:00:55;;;;;;;;;;;-0.60;99.90;;;;;;5070965;28;19956;-72
2022/02/13 04:03:22;;;;;;;;;;;-0.70;99.90;;;;;;5070704;28;19970;-72
2022/02/13 04:05:48;;;;;;;;;;;-0.70;99.90;;;;;;5071086;28;19916;-72
2022/02/13 04:08:13;;;;;;;;;;;-0.80;99.90;;;;;;5070846;28;20391;-71
2022/02/13 04:10:39;;;;;;;;;;;-0.70;99.90;;;;;;5070913;28;19909;-72
2022/02/13 04:13:05;;;;;;;;;;;-0.60;99.90;;;;;;5070290;28;20403;-71
2022/02/13 04:15:30;;;;;;;;;;;-0.50;99.90;;;;;;5070672;28;19920;-72
2022/02/13 04:17:56;;;;;;;;;;;-0.50;99.90;;;;;;5063349;28;19916;-71
2022/02/13 04:20:22;;;;;;;;;;;-0.30;99.90;;;;;;5070561;28;19916;-71
2022/02/13 04:22:47;;;;;;;;;;;-0.50;99.90;;;;;;5070539;28;19961;-71
2022/02/13 04:25:13;;;;;;;;;;;-0.40;99.90;;;;;;5070450;28;19912;-71
2022/02/13 04:27:38;;;;;;;;;;;-0.40;99.90;;;;;;5070509;28;19987;-72
2022/02/13 04:30:07;;;;;;;;;;;-0.20;99.90;;;;;;5070752;28;20280;-72
2022/02/13 04:32:33;;;;;;;;;;;-0.40;99.90;;;;;;5070393;28;19919;-72
2022/02/13 04:34:58;;;;;;;;;;;-0.40;99.90;;;;;;5070593;28;20003;-72
2022/02/13 04:37:24;;;;;;;;;;;-0.60;99.90;;;;;;5070551;28;19908;-72
2022/02/13 04:39:49;;;;;;;;;;;-0.60;99.90;;;;;;5070627;28;19951;-72
2022/02/13 04:42:15;;;;;;;;;;;-0.70;99.90;;;;;;5070228;28;20328;-72
2022/02/13 04:44:41;;;;;;;;;;;-0.70;99.90;;;;;;5066549;28;19967;-72
2022/02/13 04:47:07;;;;;;;;;;;-0.70;99.90;;;;;;5070306;28;19909;-72
2022/02/13 04:49:33;;;;;;;;;;;-0.60;99.90;;;;;;5070389;28;19908;-72
2022/02/13 04:51:59;;;;;;;;;;;-0.60;99.90;;;;;;5070370;28;19913;-72
2022/02/13 04:54:24;;;;;;;;;;;-0.50;99.90;;;;;;5070214;28;19934;-72
2022/02/13 04:56:51;;;;;;;;;;;-0.40;99.90;;;;;;5071436;28;19962;-72
2022/02/13 04:59:17;;;;;;;;;;;-0.50;99.90;;;;;;5074157;28;20000;-71
2022/02/13 05:01:43;;;;;;;;;;;-0.50;99.90;;;;;;5072525;28;19915;-72
2022/02/13 05:04:08;;;;;;;;;;;-0.20;99.90;;;;;;5073682;28;19909;-72
2022/02/13 05:06:35;;;;;;;;;;;-0.50;99.90;;;;;;5073825;28;19915;-72
2022/02/13 05:09:00;;;;;;;;;;;-0.70;99.90;;;;;;5072916;28;19920;-72
2022/02/13 05:11:27;;;;;;;;;;;-0.80;99.90;;;;;;5073521;28;19912;-72
2022/02/13 05:13:53;;;;;;;;;;;-1.00;99.90;;;;;;5073657;28;19920;-72
2022/02/13 05:16:18;;;;;;;;;;;-1.20;99.90;;;;;;5071236;28;20213;-72
2022/02/13 05:18:44;;;;;;;;;;;-1.30;99.90;;;;;;5076699;28;19997;-72
2022/02/13 05:21:09;;;;;;;;;;;-1.40;99.90;;;;;;5073653;28;20287;-72
2022/02/13 05:23:35;;;;;;;;;;;-1.40;99.90;;;;;;5072059;28;19914;-72
2022/02/13 05:26:01;;;;;;;;;;;-1.30;99.90;;;;;;5073232;28;19958;-72
2022/02/13 05:28:27;;;;;;;;;;;-0.90;99.90;;;;;;5073437;28;19908;-72
2022/02/13 05:30:53;;;;;;;;;;;-0.50;99.90;;;;;;5073505;28;19909;-72
2022/02/13 05:33:18;;;;;;;;;;;-0.30;99.90;;;;;;5073099;28;19935;-71
2022/02/13 05:35:44;;;;;;;;;;;-0.40;99.90;;;;;;5073871;28;19931;-72
2022/02/13 05:38:09;;;;;;;;;;;-0.50;99.90;;;;;;5073225;28;19908;-72
2022/02/13 05:40:35;;;;;;;;;;;-0.50;99.90;;;;;;5073066;28;19916;-72
2022/02/13 05:43:00;;;;;;;;;;;-0.70;99.90;;;;;;5071833;28;19951;-72
2022/02/13 05:45:26;;;;;;;;;;;-0.70;99.90;;;;;;5069437;28;19918;-71
2022/02/13 05:47:51;;;;;;;;;;;-0.70;99.90;;;;;;5072657;28;19912;-71
2022/02/13 05:50:17;;;;;;;;;;;-0.80;99.90;;;;;;5073136;28;20090;-71
2022/02/13 05:52:42;;;;;;;;;;;-0.70;99.90;;;;;;5073080;28;19918;-71
2022/02/13 05:55:08;;;;;;;;;;;-0.80;99.90;;;;;;5072593;28;20377;-71
2022/02/13 05:57:33;;;;;;;;;;;-0.70;99.90;;;;;;5072963;28;19961;-72
2022/02/13 05:59:59;;;;;;;;;;;-0.70;99.90;;;;;;5072943;28;19915;-72
2022/02/13 06:02:24;;;;;;;;;;;-0.50;99.90;;;;;;5072701;28;19909;-71
2022/02/13 06:04:50;;;;;;;;;;;-0.60;99.90;;;;;;5072589;28;20365;-71
2022/02/13 06:07:15;;;;;;;;;;;-0.60;99.90;;;;;;5072766;28;20423;-71
2022/02/13 06:09:41;;;;;;;;;;;-0.50;99.90;;;;;;5071640;28;19908;-71
2022/02/13 06:12:07;;;;;;;;;;;-0.70;99.90;;;;;;5072635;28;19908;-71
2022/02/13 06:14:32;;;;;;;;;;;-0.70;99.90;;;;;;5071537;28;19955;-71
2022/02/13 06:16:59;;;;;;;;;;;-0.60;99.90;;;;;;5072181;28;20007;-71
2022/02/13 06:19:25;;;;;;;;;;;-0.90;99.90;;;;;;5072530;28;20434;-72
2022/02/13 06:21:51;;;;;;;;;;;-1.00;99.90;;;;;;5072327;28;19908;-71
2022/02/13 06:24:16;;;;;;;;;;;-0.80;99.90;;;;;;5071874;28;19930;-72
2022/02/13 06:26:42;;;;;;;;;;;-0.80;99.90;;;;;;5072327;28;19919;-72
2022/02/13 06:29:08;;;;;;;;;;;-0.90;99.90;;;;;;5072377;28;19952;-73
2022/02/13 06:31:33;;;;;;;;;;;-1.00;99.90;;;;;;5072001;28;19913;-71
2022/02/13 06:33:59;;;;;;;;;;;-0.80;99.90;;;;;;5071777;28;20007;-72
2022/02/13 06:36:24;;;;;;;;;;;-1.10;99.90;;;;;;5071941;28;20331;-71
2022/02/13 06:38:50;;;;;;;;;;;-1.20;99.90;;;;;;5071814;28;19974;-72
2022/02/13 06:41:15;;;;;;;;;;;-1.20;99.90;;;;;;5072318;28;19912;-72
2022/02/13 06:43:41;;;;;;;;;;;-1.50;99.90;;;;;;5071761;28;19909;-72
2022/02/13 06:46:06;;;;;;;;;;;-1.60;99.90;;;;;;5069035;28;19916;-72
2022/02/13 06:48:33;;;;;;;;;;;-1.50;99.90;;;;;;5071819;28;19920;-72
2022/02/13 06:50:58;;;;;;;;;;;-1.40;99.90;;;;;;5071922;28;19916;-72
2022/02/13 06:53:24;;;;;;;;;;;-1.40;99.90;;;;;;5071378;28;19908;-71
2022/02/13 06:55:50;;;;;;;;;;;-1.10;99.90;;;;;;5071829;28;19912;-72
2022/02/13 06:58:20;;;;;;;;;;;-0.90;99.90;;;;;;5065367;28;19909;-71
2022/02/13 07:00:45;;;;;;;;;;;-0.70;99.90;;;;;;5065419;28;19916;-71
2022/02/13 07:03:11;;;;;;;;;;;-0.60;99.90;;;;;;5071395;28;19908;-72
2022/02/13 07:05:36;;;;;;;;;;;-0.60;99.90;;;;;;5071662;28;19919;-72
2022/02/13 07:08:02;;;;;;;;;;;-0.60;99.90;;;;;;5071256;28;19912;-72
2022/02/13 07:10:27;;;;;;;;;;;-0.70;99.90;;;;;;5071604;28;20364;-72
2022/02/13 07:12:53;;;;;;;;;;;-1.10;99.90;;;;;;5071396;28;19909;-72
2022/02/13 07:15:18;;;;;;;;;;;-1.10;99.90;;;;;;5070996;28;19908;-72
2022/02/13 07:17:44;;;;;;;;;;;-1.20;99.90;;;;;;5071031;28;20460;-72
2022/02/13 07:20:10;;;;;;;;;;;-1.30;99.90;;;;;;5071370;28;19908;-72
2022/02/13 07:22:36;;;;;;;;;;;-1.30;99.90;;;;;;5071017;28;20335;-73
2022/02/13 07:25:06;;;;;;;;;;;-1.30;99.90;;;;;;5071040;28;19917;-73
2022/02/13 07:27:32;;;;;;;;;;;-1.30;99.90;;;;;;5071381;28;19908;-72
2022/02/13 07:29:57;;;;;;;;;;;-1.40;99.90;;;;;;5071368;28;19934;-72
2022/02/13 07:32:23;;;;;;;;;;;-1.50;99.90;;;;;;5070974;28;19955;-73
2022/02/13 07:34:49;;;;;;;;;;;-1.50;99.90;;;;;;5071195;28;19908;-72
2022/02/13 07:37:14;;;;;;;;;;;-1.40;99.90;;;;;;5070894;28;19909;-72
2022/02/13 07:39:40;;;;;;;;;;;-1.00;99.90;;;;;;5071111;28;19970;-73
2022/02/13 07:42:06;;;;;;;;;;;-1.00;99.90;;;;;;5071065;28;20050;-72
2022/02/13 07:44:32;;;;;;;;;;;-1.20;99.90;;;;;;5070230;28;20011;-73
2022/02/13 07:46:57;;;;;;;;;;;-1.20;99.90;;;;;;5064203;28;20368;-73
2022/02/13 07:49:23;;;;;;;;;;;-1.10;99.90;;;;;;5070176;28;20008;-72
2022/02/13 07:51:49;;;;;;;;;;;-0.90;99.90;;;;;;5071265;28;19909;-73
2022/02/13 07:54:14;;;;;;;;;;;-0.60;99.90;;;;;;5067102;28;19943;-72
2022/02/13 07:56:40;;;;;;;;;;;-0.50;99.90;;;;;;5070627;28;19959;-72
2022/02/13 07:59:05;;;;;;;;;;;-0.40;99.90;;;;;;5071353;28;19987;-72
2022/02/13 08:01:31;;;;;;;;;;;-0.30;99.90;;;;;;5071569;28;19923;-72
2022/02/13 08:03:56;;;;;;;;;;;-0.40;99.90;;;;;;5070918;28;20388;-72
2022/02/13 08:06:22;;;;;;;;;;;-0.30;99.90;;;;;;5071299;28;19923;-72
2022/02/13 08:08:48;;;;;;;;;;;-0.20;99.90;;;;;;5073705;28;19998;-72
2022/02/13 08:11:14;;;;;;;;;;;-0.10;99.90;;;;;;5070868;28;19916;-72
2022/02/13 08:13:39;;;;;;;;;;;0.10;99.90;;;;;;5070552;28;20424;-72
2022/02/13 08:16:05;;;;;;;;;;;0.20;99.90;;;;;;5073444;28;19961;-73
2022/02/13 08:18:31;;;;;;;;;;;0.30;99.90;;;;;;5070701;28;20396;-73
2022/02/13 08:20:56;;;;;;;;;;;0.40;99.90;;;;;;5062321;28;19952;-73
2022/02/13 08:23:22;;;;;;;;;;;0.70;99.90;;;;;;5066856;28;19975;-73
2022/02/13 08:25:48;;;;;;;;;;;0.90;99.90;;;;;;5058312;28;19912;-73
2022/02/13 08:28:14;;;;;;;;;;;1.10;99.90;;;;;;5064607;28;20396;-73
2022/02/13 08:30:41;;;;;;;;;;;1.50;99.90;;;;;;5057651;28;19909;-73
2022/02/13 08:33:06;;;;;;;;;;;1.70;99.90;;;;;;5063622;28;19915;-72
2022/02/13 08:35:32;;;;;;;;;;;1.80;99.90;;;;;;5058365;28;19917;-73
2022/02/13 08:37:57;;;;;;;;;;;2.40;99.90;;;;;;5066620;28;20277;-74
2022/02/13 08:40:23;;;;;;;;;;;2.60;99.90;;;;;;5074761;28;19909;-73
2022/02/13 08:42:48;;;;;;;;;;;2.70;99.90;;;;;;5074924;28;19908;-73
2022/02/13 08:45:14;;;;;;;;;;;2.80;99.90;;;;;;5071460;28;20292;-72
2022/02/13 08:47:39;;;;;;;;;;;5.00;99.90;;;;;;5074856;28;20318;-73
2022/02/13 08:50:05;;;;;;;;;;;7.30;97.70;;;;;;5074512;28;19920;-73
2022/02/13 08:52:31;;;;;;;;;;;8.30;93.20;;;;;;5074358;28;19913;-73
2022/02/13 08:54:56;;;;;;;;;;;9.80;90.90;;;;;;5074176;28;19909;-74
2022/02/13 08:57:22;;;;;;;;;;;10.40;86.80;;;;;;5066362;28;19920;-71
2022/02/13 08:59:47;;;;;;;;;;;10.90;83.30;;;;;;5074022;28;19916;-71
2022/02/13 09:02:12;;;;;;;;;;;11.70;80.90;;;;;;5073427;28;20280;-73
2022/02/13 09:04:38;;;;;;;;;;;12.30;78.90;;;;;;5065923;28;19920;-73
2022/02/13 09:07:04;;;;;;;;;;;12.50;75.80;;;;;;5074198;28;20280;-73
2022/02/13 09:09:30;;;;;;;;;;;12.60;75.00;;;;;;5074315;28;19909;-73
2022/02/13 09:11:56;;;;;;;;;;;13.20;73.40;;;;;;5072476;28;19912;-73
2022/02/13 09:14:21;;;;;;;;;;;13.40;73.90;;;;;;5073014;28;19908;-73
2022/02/13 09:16:47;;;;;;;;;;;13.60;71.60;;;;;;5072657;28;20285;-74
2022/02/13 09:19:13;;;;;;;;;;;12.80;74.10;;;;;;5073518;28;19962;-74
2022/02/13 09:21:39;;;;;;;;;;;13.50;72.30;;;;;;5064528;28;19921;-75
2022/02/13 09:24:05;;;;;;;;;;;14.30;71.20;;;;;;5068815;28;20316;-74
2022/02/13 09:26:30;;;;;;;;;;;14.70;68.00;;;;;;5071642;28;19908;-74
2022/02/13 09:28:58;;;;;;;;;;;14.60;69.00;;;;;;5072987;28;19952;-71
2022/02/13 09:31:23;;;;;;;;;;;15.00;67.60;;;;;;5072649;28;19940;-72
2022/02/13 09:33:49;;;;;;;;;;;15.00;66.70;;;;;;5072115;28;19955;-72
2022/02/13 09:36:16;;;;;;;;;;;15.50;65.20;;;;;;5073145;28;19909;-72
2022/02/13 09:38:42;;;;;;;;;;;16.30;64.80;;;;;;5071486;28;19947;-72
2022/02/13 09:41:07;;;;;;;;;;;16.20;64.70;;;;;;5072835;28;19952;-72
2022/02/13 09:43:33;;;;;;;;;;;16.50;64.30;;;;;;5071838;28;19916;-73
2022/02/13 09:45:59;;;;;;;;;;;17.20;62.50;;;;;;5069639;28;19912;-73
2022/02/13 09:48:28;;;;;;;;;;;16.20;61.70;;;;;;5072884;28;20345;-72
2022/02/13 09:50:58;;;;;;;;;;;14.70;64.60;;;;;;5073051;28;19915;-73
2022/02/13 09:53:24;;;;;;;;;;;14.90;64.80;;;;;;5073264;28;19908;-73
2022/02/13 09:55:49;;;;;;;;;;;16.30;62.80;;;;;;5072375;28;19988;-74
2022/02/13 09:58:15;;;;;;;;;;;17.40;59.90;;;;;;5073165;28;19935;-73
2022/02/13 10:00:55;;;;;;;;;;;18.30;57.30;;;;;;5072164;28;19995;-73
2022/02/13 10:03:20;;;;;;;;;;;18.30;56.80;;;;;;5066838;28;19962;-73
2022/02/13 10:05:46;;;;;;;;;;;18.90;55.20;;;;;;5073271;28;19913;-73
2022/02/13 10:08:18;;;;;;;;;;;19.30;55.90;;;;;;5066598;28;19931;-74
2022/02/13 10:10:44;;;;;;;;;;;18.90;55.30;;;;;;5067288;28;19912;-73
2022/02/13 10:13:09;;;;;;;;;;;17.40;55.40;;;;;;5072640;28;19909;-73
2022/02/13 10:15:35;;;;;;;;;;;16.40;58.90;;;;;;5072421;28;19920;-73
2022/02/13 10:18:03;;;;;;;;;;;17.60;57.50;;;;;;5064175;28;19913;-73
2022/02/13 10:20:31;;;;;;;;;;;17.60;58.00;;;;;;5066335;28;20281;-73
2022/02/13 10:23:02;;;;;;;;;;;16.60;58.40;;;;;;5072593;28;19912;-73
2022/02/13 10:25:27;;;;;;;;;;;16.20;59.40;;;;;;5066422;28;19912;-73
2022/02/13 10:27:53;;;;;;;;;;;17.20;57.80;;;;;;5072579;28;19931;-73
2022/02/13 10:30:35;;;;;;;;;;;19.40;55.80;;;;;;5072485;28;20385;-73
2022/02/13 10:33:21;;;;;;;;;;;19.50;54.80;;;;;;5067699;28;19908;-73
2022/02/13 10:36:02;;;;;;;;;;;17.70;55.70;;;;;;5071153;28;19962;-74
2022/02/13 10:38:30;;;;;;;;;;;18.80;54.40;;;;;;5072276;28;20008;-73
2022/02/13 10:41:09;;;;;;;;;;;19.70;54.10;;;;;;5071292;28;19913;-73
2022/02/13 10:43:48;;;;;;;;;;;18.40;53.60;;;;;;5072142;28;19961;-73
2022/02/13 10:46:18;;;;;;;;;;;17.10;57.80;;;;;;5071830;28;19916;-73
2022/02/13 10:48:46;;;;;;;;;;;18.10;56.70;;;;;;5072026;28;19909;-73
2022/02/13 10:51:12;;;;;;;;;;;17.80;56.20;;;;;;5072262;28;19909;-72
2022/02/13 10:53:41;;;;;;;;;;;16.40;56.00;;;;;;5072080;28;19912;-73
2022/02/13 10:56:07;;;;;;;;;;;14.30;61.50;;;;;;5072138;28;19908;-74
2022/02/13 10:58:32;;;;;;;;;;;15.20;60.30;;;;;;5072768;28;19923;-73
2022/02/13 11:00:58;;;;;;;;;;;16.50;57.90;;;;;;5072398;28;20414;-74
2022/02/13 11:03:25;;;;;;;;;;;17.00;57.30;;;;;;5070562;28;20250;-73
2022/02/13 11:05:51;;;;;;;;;;;17.50;57.50;;;;;;5072236;28;19923;-73
2022/02/13 11:08:20;;;;;;;;;;;18.80;53.90;;;;;;5071942;28;19909;-73
2022/02/13 11:10:51;;;;;;;;;;;17.80;55.40;;;;;;5072184;28;20003;-74
2022/02/13 11:13:17;;;;;;;;;;;16.40;57.30;;;;;;5071712;28;19932;-74
2022/02/13 11:15:43;;;;;;;;;;;15.80;58.20;;;;;;5067911;28;19926;-73
2022/02/13 11:18:14;;;;;;;;;;;15.40;59.00;;;;;;5071053;28;19912;-74
2022/02/13 11:20:41;;;;;;;;;;;15.70;56.70;;;;;;5072157;28;19908;-74
2022/02/13 11:23:36;;;;;;;;;;;15.80;59.10;;;;;;5071384;28;19915;-74
2022/02/13 11:26:03;;;;;;;;;;;14.60;59.60;;;;;;5050725;28;19912;-76
2022/02/13 11:28:45;;;;;;;;;;;15.10;60.60;;;;;;5071024;28;20349;-74
2022/02/13 11:31:28;;;;;;;;;;;15.90;57.50;;;;;;5071938;28;19916;-74
2022/02/13 11:33:54;;;;;;;;;;;17.00;56.50;;;;;;5068174;28;20030;-76
2022/02/13 11:36:19;;;;;;;;;;;17.60;52.30;;;;;;5071200;28;19948;-74
2022/02/13 11:38:46;;;;;;;;;;;16.50;55.80;;;;;;5071291;28;19943;-74
2022/02/13 11:41:12;;;;;;;;;;;16.20;55.10;;;;;;5070880;28;20357;-73
2022/02/13 11:43:44;;;;;;;;;;;14.40;58.70;;;;;;5071277;28;19908;-74
2022/02/13 11:46:10;;;;;;;;;;;13.00;62.50;;;;;;5067617;28;20006;-74
2022/02/13 11:48:36;;;;;;;;;;;11.80;67.80;;;;;;5071137;28;20327;-74
2022/02/13 11:51:02;;;;;;;;;;;11.10;69.20;;;;;;5062060;28;19908;-74
2022/02/13 11:53:28;;;;;;;;;;;11.00;69.30;;;;;;5067950;28;20280;-77
2022/02/13 11:56:14;;;;;;;;;;;10.70;70.40;;;;;;5068285;28;19908;-74
2022/02/13 11:58:43;;;;;;;;;;;10.30;68.40;;;;;;5070248;28;19962;-74
2022/02/13 12:01:28;;;;;;;;;;;9.90;72.00;;;;;;5067670;28;19909;-73
2022/02/13 12:03:53;;;;;;;;;;;9.60;72.70;;;;;;5063470;28;19908;-74
2022/02/13 12:06:22;;;;;;;;;;;9.70;73.70;;;;;;5070069;28;19962;-74
2022/02/13 12:08:48;;;;;;;;;;;9.80;71.90;;;;;;5075720;28;19995;-73
2022/02/13 12:11:16;;;;;;;;;;;9.70;71.30;;;;;;5075141;28;20027;-76
2022/02/13 12:13:43;;;;;;;;;;;9.50;73.60;;;;;;5074590;28;19918;-74
2022/02/13 12:16:09;;;;;;;;;;;9.40;74.40;;;;;;5072303;28;19991;-74
2022/02/13 12:18:35;;;;;;;;;;;9.60;74.40;;;;;;5077515;28;19954;-74
2022/02/13 12:21:03;;;;;;;;;;;9.70;72.20;;;;;;5073785;28;20357;-74
2022/02/13 12:23:30;;;;;;;;;;;9.70;72.40;;;;;;5073485;28;19908;-74
2022/02/13 12:25:56;;;;;;;;;;;9.60;73.40;;;;;;5073600;28;20353;-74
2022/02/13 12:28:27;;;;;;;;;;;9.50;75.80;;;;;;5074975;28;19947;-74
2022/02/13 12:30:53;;;;;;;;;;;9.60;75.00;;;;;;5075269;28;19965;-74
2022/02/13 12:33:22;;;;;;;;;;;9.60;74.10;;;;;;5074673;28;19908;-75
2022/02/13 12:35:48;;;;;;;;;;;9.60;75.50;;;;;;5074988;28;20408;-73
2022/02/13 12:38:14;;;;;;;;;;;9.50;75.00;;;;;;5074833;28;19989;-74
2022/02/13 12:40:43;;;;;;;;;;;9.40;75.90;;;;;;5074939;28;19909;-74
2022/02/13 12:43:16;;;;;;;;;;;9.40;75.30;;;;;;5073135;28;19908;-73
2022/02/13 12:45:43;;;;;;;;;;;9.40;75.10;;;;;;5070898;28;20274;-73
2022/02/13 12:48:21;;;;;;;;;;;9.30;76.10;;;;;;5074207;28;19909;-73
2022/02/13 12:50:47;;;;;;;;;;;9.40;76.00;;;;;;5074926;28;20341;-74
2022/02/13 12:53:14;;;;;;;;;;;9.30;75.30;;;;;;5074142;28;20388;-73
2022/02/13 12:55:42;;;;;;;;;;;9.50;74.20;;;;;;5074562;28;19909;-74
2022/02/13 12:58:08;;;;;;;;;;;9.60;74.50;;;;;;5074370;28;19940;-73
2022/02/13 13:00:54;;;;;;;;;;;9.50;74.00;;;;;;5074398;28;19995;-73
2022/02/13 13:03:20;;;;;;;;;;;9.50;74.80;;;;;;5073640;28;19908;-73
2022/02/13 13:05:47;;;;;;;;;;;9.40;75.80;;;;;;5068721;28;20297;-74
2022/02/13 13:08:25;;;;;;;;;;;9.40;74.90;;;;;;5073577;28;19943;-74
2022/02/13 13:10:51;;;;;;;;;;;9.40;75.20;;;;;;5074269;28;19951;-72
2022/02/13 13:13:18;;;;;;;;;;;9.30;76.40;;;;;;5073653;28;19944;-74
2022/02/13 13:15:56;;;;;;;;;;;9.40;75.30;;;;;;5073633;28;20010;-73
2022/02/13 13:18:34;;;;;;;;;;;9.30;76.70;;;;;;5071994;28;20388;-73
2022/02/13 13:21:11;;;;;;;;;;;9.40;76.50;;;;;;5073743;28;19954;-73
2022/02/13 13:23:36;;;;;;;;;;;9.40;75.10;;;;;;5073780;28;20333;-76
2022/02/13 13:26:12;;;;;;;;;;;9.40;77.10;;;;;;5073830;28;19962;-73
2022/02/13 13:28:38;;;;;;;;;;;9.50;76.30;;;;;;5073961;28;19908;-73
2022/02/13 13:31:05;;;;;;;;;;;9.40;78.50;;;;;;5074519;28;19909;-73
2022/02/13 13:33:31;;;;;;;;;;;9.40;77.90;;;;;;5073976;28;20365;-74
2022/02/13 13:35:58;;;;;;;;;;;9.60;75.70;;;;;;5073768;28;19908;-73
2022/02/13 13:38:33;;;;;;;;;;;9.50;76.40;;;;;;5073504;28;19962;-73
2022/02/13 13:41:03;;;;;;;;;;;9.50;74.80;;;;;;5073652;28;19920;-75
2022/02/13 13:43:29;;;;;;;;;;;9.70;74.70;;;;;;5073354;28;19915;-76
2022/02/13 13:45:54;;;;;;;;;;;9.70;75.30;;;;;;5075253;28;20281;-73
2022/02/13 13:48:19;;;;;;;;;;;9.60;74.40;;;;;;5073502;28;19916;-74
2022/02/13 13:50:46;;;;;;;;;;;9.90;74.50;;;;;;5073427;28;20038;-74
2022/02/13 13:53:13;;;;;;;;;;;9.90;74.30;;;;;;5072970;28;20042;-73
2022/02/13 13:55:43;;;;;;;;;;;9.90;75.20;;;;;;5073412;28;19908;-75
2022/02/13 13:58:08;;;;;;;;;;;9.90;74.80;;;;;;5073397;28;19915;-73
2022/02/13 14:00:34;;;;;;;;;;;9.80;74.40;;;;;;5073009;28;19990;-74
2022/02/13 14:03:01;;;;;;;;;;;9.50;76.60;;;;;;5073273;28;19914;-74
2022/02/13 14:05:27;;;;;;;;;;;9.50;76.50;;;;;;5072798;28;19935;-74
2022/02/13 14:07:54;;;;;;;;;;;9.40;74.50;;;;;;5073053;28;19912;-73
2022/02/13 14:10:21;;;;;;;;;;;9.40;74.60;;;;;;5073483;28;19955;-73
2022/02/13 14:12:47;;;;;;;;;;;9.60;74.80;;;;;;5072823;28;20007;-74
2022/02/13 14:15:12;;;;;;;;;;;9.70;73.60;;;;;;5072221;28;19958;-74
2022/02/13 14:17:38;;;;;;;;;;;9.60;73.90;;;;;;5072537;28;19917;-74